sensor_id;sensor_type;location;lat;lon;timestamp;pressure;altitude;pressure_sealevel;temperature;humidity
39949;BME280;29070;48.102;-1.652;2023-04-05T00:02:00;102141.38;;;6.86;58.75
39949;BME280;29070;48.102;-1.652;2023-04-05T00:07:00;102142.34;;;6.75;59.20
39949;BME280;29070;48.102;-1.652;2023-04-05T00:12:01;102136.94;;;6.67;58.99
39949;BME280;29070;48.102;-1.652;2023-04-05T00:17:02;102144.47;;;6.51;58.83
39949;BME280;29070;48.102;-1.652;2023-04-05T00:22:03;102145.50;;;6.38;58.92
39949;BME280;29070;48.102;-1.652;2023-04-05T00:27:04;102149.88;;;6.28;59.48
39949;BME280;29070;48.102;-1.652;2023-04-05T00:32:04;102146.28;;;6.19;60.01
39949;BME280;29070;48.102;-1.652;2023-04-05T00:37:04;102153.59;;;6.04;59.71
39949;BME280;29070;48.102;-1.652;2023-04-05T00:42:05;102152.47;;;5.97;60.13
39949;BME280;29070;48.102;-1.652;2023-04-05T00:47:06;102135.41;;;5.93;60.15
39949;BME280;29070;48.102;-1.652;2023-04-05T00:52:06;102129.88;;;5.86;60.65
39949;BME280;29070;48.102;-1.652;2023-04-05T00:57:07;102118.44;;;5.78;60.77
39949;BME280;29070;48.102;-1.652;2023-04-05T01:07:30;102099.41;;;5.56;61.16
39949;BME280;29070;48.102;-1.652;2023-04-05T01:12:37;102088.56;;;5.51;61.10
39949;BME280;29070;48.102;-1.652;2023-04-05T01:17:37;102101.50;;;5.41;61.16
39949;BME280;29070;48.102;-1.652;2023-04-05T01:28:17;102088.56;;;5.30;61.81
39949;BME280;29070;48.102;-1.652;2023-04-05T01:33:43;102084.81;;;5.23;61.96
39949;BME280;29070;48.102;-1.652;2023-04-05T01:38:49;102082.56;;;5.18;61.98
39949;BME280;29070;48.102;-1.652;2023-04-05T01:43:50;102085.13;;;5.08;62.06
39949;BME280;29070;48.102;-1.652;2023-04-05T01:48:50;102093.09;;;4.95;61.55
39949;BME280;29070;48.102;-1.652;2023-04-05T01:53:50;102076.81;;;4.82;61.60
39949;BME280;29070;48.102;-1.652;2023-04-05T01:58:51;102077.31;;;4.76;62.19
39949;BME280;29070;48.102;-1.652;2023-04-05T02:03:51;102066.63;;;4.79;62.69
39949;BME280;29070;48.102;-1.652;2023-04-05T02:08:51;102064.50;;;4.84;62.85
39949;BME280;29070;48.102;-1.652;2023-04-05T02:13:52;102063.69;;;4.84;62.91
39949;BME280;29070;48.102;-1.652;2023-04-05T02:18:55;102057.44;;;4.75;62.71
39949;BME280;29070;48.102;-1.652;2023-04-05T02:23:56;102060.53;;;4.69;63.22
39949;BME280;29070;48.102;-1.652;2023-04-05T02:28:57;102058.31;;;4.64;63.05
39949;BME280;29070;48.102;-1.652;2023-04-05T02:33:57;102064.81;;;4.58;63.38
39949;BME280;29070;48.102;-1.652;2023-04-05T02:38:59;102048.41;;;4.58;63.60
39949;BME280;29070;48.102;-1.652;2023-04-05T02:44:00;102049.22;;;4.58;63.72
39949;BME280;29070;48.102;-1.652;2023-04-05T02:49:00;102044.25;;;4.55;63.91
39949;BME280;29070;48.102;-1.652;2023-04-05T02:54:01;102047.25;;;4.51;64.39
39949;BME280;29070;48.102;-1.652;2023-04-05T02:59:02;102046.38;;;4.50;64.44
39949;BME280;29070;48.102;-1.652;2023-04-05T03:04:03;102036.00;;;4.50;64.60
39949;BME280;29070;48.102;-1.652;2023-04-05T03:09:03;102030.91;;;4.49;64.56
39949;BME280;29070;48.102;-1.652;2023-04-05T03:14:04;102028.81;;;4.43;64.65
39949;BME280;29070;48.102;-1.652;2023-04-05T03:19:04;102028.22;;;4.39;64.62
39949;BME280;29070;48.102;-1.652;2023-04-05T03:24:05;102030.94;;;4.37;64.94
39949;BME280;29070;48.102;-1.652;2023-04-05T03:29:06;102028.72;;;4.33;65.16
39949;BME280;29070;48.102;-1.652;2023-04-05T03:34:07;102029.78;;;4.30;65.10
39949;BME280;29070;48.102;-1.652;2023-04-05T03:39:12;102014.09;;;4.20;65.14
39949;BME280;29070;48.102;-1.652;2023-04-05T03:44:12;102017.88;;;4.16;65.09
39949;BME280;29070;48.102;-1.652;2023-04-05T03:49:12;102015.38;;;4.15;65.37
39949;BME280;29070;48.102;-1.652;2023-04-05T03:54:13;102017.88;;;4.16;65.70
39949;BME280;29070;48.102;-1.652;2023-04-05T03:59:13;102016.47;;;4.12;65.82
39949;BME280;29070;48.102;-1.652;2023-04-05T04:04:14;102024.38;;;4.11;65.77
39949;BME280;29070;48.102;-1.652;2023-04-05T04:09:14;102006.31;;;4.09;65.80
39949;BME280;29070;48.102;-1.652;2023-04-05T04:14:15;102012.47;;;4.08;65.96
39949;BME280;29070;48.102;-1.652;2023-04-05T04:19:17;102022.75;;;4.10;66.03
39949;BME280;29070;48.102;-1.652;2023-04-05T04:24:18;102014.81;;;4.11;66.53
39949;BME280;29070;48.102;-1.652;2023-04-05T04:29:18;102021.44;;;4.15;66.24
39949;BME280;29070;48.102;-1.652;2023-04-05T04:34:19;102026.38;;;4.18;66.79
39949;BME280;29070;48.102;-1.652;2023-04-05T04:39:20;102024.22;;;4.24;66.60
39949;BME280;29070;48.102;-1.652;2023-04-05T04:44:25;102015.16;;;4.29;66.89
39949;BME280;29070;48.102;-1.652;2023-04-05T04:49:29;102018.06;;;4.36;66.83
39949;BME280;29070;48.102;-1.652;2023-04-05T04:54:29;102014.31;;;4.40;66.80
39949;BME280;29070;48.102;-1.652;2023-04-05T04:59:33;102012.28;;;4.44;67.02
39949;BME280;29070;48.102;-1.652;2023-04-05T05:04:33;102019.00;;;4.46;66.97
39949;BME280;29070;48.102;-1.652;2023-04-05T05:09:33;102017.69;;;4.52;67.27
39949;BME280;29070;48.102;-1.652;2023-04-05T05:14:34;102023.56;;;4.54;67.32
39949;BME280;29070;48.102;-1.652;2023-04-05T05:19:34;102024.03;;;4.59;67.33
39949;BME280;29070;48.102;-1.652;2023-04-05T05:24:35;102020.38;;;4.62;67.51
39949;BME280;29070;48.102;-1.652;2023-04-05T05:29:36;102023.56;;;4.65;67.75
39949;BME280;29070;48.102;-1.652;2023-04-05T05:34:36;102030.72;;;4.73;67.63
39949;BME280;29070;48.102;-1.652;2023-04-05T05:39:37;102027.03;;;4.75;67.56
39949;BME280;29070;48.102;-1.652;2023-04-05T05:44:38;102024.44;;;4.75;67.68
39949;BME280;29070;48.102;-1.652;2023-04-05T05:49:38;102028.59;;;4.78;67.71
39949;BME280;29070;48.102;-1.652;2023-04-05T05:54:38;102035.19;;;4.82;67.70
39949;BME280;29070;48.102;-1.652;2023-04-05T05:59:39;102037.31;;;4.88;67.52
39949;BME280;29070;48.102;-1.652;2023-04-05T06:04:40;102029.22;;;4.91;67.84
39949;BME280;29070;48.102;-1.652;2023-04-05T06:09:41;102032.53;;;4.93;68.04
39949;BME280;29070;48.102;-1.652;2023-04-05T06:14:41;102040.09;;;4.96;68.34
39949;BME280;29070;48.102;-1.652;2023-04-05T06:19:41;102039.84;;;5.00;68.20
39949;BME280;29070;48.102;-1.652;2023-04-05T06:24:41;102047.13;;;5.06;68.48
39949;BME280;29070;48.102;-1.652;2023-04-05T06:29:42;102044.75;;;5.14;68.65
39949;BME280;29070;48.102;-1.652;2023-04-05T06:34:42;102035.81;;;5.28;69.01
39949;BME280;29070;48.102;-1.652;2023-04-05T06:39:45;102042.44;;;5.42;69.11
39949;BME280;29070;48.102;-1.652;2023-04-05T06:44:45;102040.47;;;5.55;69.13
39949;BME280;29070;48.102;-1.652;2023-04-05T06:49:46;102045.59;;;5.66;69.18
39949;BME280;29070;48.102;-1.652;2023-04-05T06:54:46;102037.56;;;5.79;69.34
39949;BME280;29070;48.102;-1.652;2023-04-05T06:59:46;102033.56;;;5.96;69.58
39949;BME280;29070;48.102;-1.652;2023-04-05T07:04:47;102030.72;;;6.09;69.42
39949;BME280;29070;48.102;-1.652;2023-04-05T07:09:48;102035.81;;;6.20;69.26
39949;BME280;29070;48.102;-1.652;2023-04-05T07:14:48;102030.09;;;6.36;69.61
39949;BME280;29070;48.102;-1.652;2023-04-05T07:19:50;102030.25;;;6.54;69.46
39949;BME280;29070;48.102;-1.652;2023-04-05T07:24:50;102032.75;;;6.75;69.51
39949;BME280;29070;48.102;-1.652;2023-04-05T07:29:52;102028.09;;;6.89;69.54
39949;BME280;29070;48.102;-1.652;2023-04-05T07:34:52;102029.16;;;7.05;69.48
39949;BME280;29070;48.102;-1.652;2023-04-05T07:39:52;102032.00;;;7.22;69.32
39949;BME280;29070;48.102;-1.652;2023-04-05T07:44:53;102043.41;;;7.40;69.48
39949;BME280;29070;48.102;-1.652;2023-04-05T07:49:53;102038.94;;;7.60;69.35
39949;BME280;29070;48.102;-1.652;2023-04-05T07:54:54;102031.84;;;7.80;69.46
39949;BME280;29070;48.102;-1.652;2023-04-05T07:59:55;102037.66;;;8.02;68.79
39949;BME280;29070;48.102;-1.652;2023-04-05T08:04:55;102039.06;;;8.24;68.92
39949;BME280;29070;48.102;-1.652;2023-04-05T08:09:56;102024.25;;;8.43;68.51
39949;BME280;29070;48.102;-1.652;2023-04-05T08:14:58;102031.13;;;8.62;68.20
39949;BME280;29070;48.102;-1.652;2023-04-05T08:19:58;102027.84;;;8.77;67.35
39949;BME280;29070;48.102;-1.652;2023-04-05T08:24:59;102029.63;;;8.95;67.45
39949;BME280;29070;48.102;-1.652;2023-04-05T08:29:59;102021.22;;;9.09;67.22
39949;BME280;29070;48.102;-1.652;2023-04-05T08:34:59;102025.03;;;9.41;67.11
39949;BME280;29070;48.102;-1.652;2023-04-05T08:40:00;102022.50;;;9.58;66.51
39949;BME280;29070;48.102;-1.652;2023-04-05T08:45:02;102017.38;;;9.82;66.45
39949;BME280;29070;48.102;-1.652;2023-04-05T08:50:03;102018.38;;;9.98;65.96
39949;BME280;29070;48.102;-1.652;2023-04-05T08:55:05;102019.88;;;10.00;65.41
39949;BME280;29070;48.102;-1.652;2023-04-05T09:00:07;102012.22;;;10.07;65.15
39949;BME280;29070;48.102;-1.652;2023-04-05T09:05:08;102016.00;;;10.13;64.74
39949;BME280;29070;48.102;-1.652;2023-04-05T09:10:12;102015.50;;;10.17;64.79
39949;BME280;29070;48.102;-1.652;2023-04-05T09:15:13;102012.00;;;10.43;64.95
39949;BME280;29070;48.102;-1.652;2023-04-05T09:20:15;102010.06;;;10.86;65.00
39949;BME280;29070;48.102;-1.652;2023-04-05T09:30:32;102009.97;;;11.35;63.98
39949;BME280;29070;48.102;-1.652;2023-04-05T09:35:35;102002.34;;;11.57;63.66
39949;BME280;29070;48.102;-1.652;2023-04-05T09:40:53;102000.91;;;11.86;61.30
39949;BME280;29070;48.102;-1.652;2023-04-05T09:45:54;102011.03;;;12.05;62.54
39949;BME280;29070;48.102;-1.652;2023-04-05T09:51:03;101999.13;;;12.17;61.92
39949;BME280;29070;48.102;-1.652;2023-04-05T09:56:08;101990.28;;;12.42;61.78
39949;BME280;29070;48.102;-1.652;2023-04-05T10:01:10;101990.56;;;12.70;62.06
39949;BME280;29070;48.102;-1.652;2023-04-05T10:06:10;101990.69;;;12.91;61.32
39949;BME280;29070;48.102;-1.652;2023-04-05T10:11:11;101991.63;;;12.99;60.75
39949;BME280;29070;48.102;-1.652;2023-04-05T10:16:18;101990.00;;;13.27;60.21
39949;BME280;29070;48.102;-1.652;2023-04-05T10:21:21;101991.47;;;13.45;59.70
39949;BME280;29070;48.102;-1.652;2023-04-05T10:26:54;101982.94;;;13.43;57.34
39949;BME280;29070;48.102;-1.652;2023-04-05T10:32:03;101980.22;;;13.51;58.14
39949;BME280;29070;48.102;-1.652;2023-04-05T10:37:35;101973.06;;;13.81;55.58
39949;BME280;29070;48.102;-1.652;2023-04-05T10:42:43;101981.13;;;13.95;56.27
39949;BME280;29070;48.102;-1.652;2023-04-05T10:48:15;101980.44;;;14.07;54.17
39949;BME280;29070;48.102;-1.652;2023-04-05T10:53:18;101973.66;;;14.41;56.08
39949;BME280;29070;48.102;-1.652;2023-04-05T10:58:20;101981.59;;;14.63;56.17
39949;BME280;29070;48.102;-1.652;2023-04-05T11:04:10;101973.50;;;14.93;53.55
39949;BME280;29070;48.102;-1.652;2023-04-05T11:09:13;101979.91;;;15.05;54.61
39949;BME280;29070;48.102;-1.652;2023-04-05T11:14:20;101981.81;;;15.18;52.76
39949;BME280;29070;48.102;-1.652;2023-04-05T11:24:51;101964.03;;;15.40;52.63
39949;BME280;29070;48.102;-1.652;2023-04-05T11:29:52;101972.88;;;15.60;52.15
39949;BME280;29070;48.102;-1.652;2023-04-05T11:35:04;101963.94;;;15.61;50.17
39949;BME280;29070;48.102;-1.652;2023-04-05T11:40:31;101953.66;;;15.87;45.71
39949;BME280;29070;48.102;-1.652;2023-04-05T11:45:33;101960.41;;;16.03;50.89
39949;BME280;29070;48.102;-1.652;2023-04-05T11:50:35;101959.34;;;15.84;49.75
39949;BME280;29070;48.102;-1.652;2023-04-05T11:55:40;101946.50;;;15.80;49.11
39949;BME280;29070;48.102;-1.652;2023-04-05T12:00:41;101949.84;;;16.23;49.79
39949;BME280;29070;48.102;-1.652;2023-04-05T12:05:49;101940.69;;;16.38;48.18
39949;BME280;29070;48.102;-1.652;2023-04-05T12:10:57;101930.47;;;16.29;47.62
39949;BME280;29070;48.102;-1.652;2023-04-05T12:16:03;101920.69;;;16.56;47.49
39949;BME280;29070;48.102;-1.652;2023-04-05T12:21:08;101920.69;;;16.89;47.57
39949;BME280;29070;48.102;-1.652;2023-04-05T12:26:09;101905.97;;;17.00;47.96
39949;BME280;29070;48.102;-1.652;2023-04-05T12:31:09;101903.03;;;17.22;47.27
39949;BME280;29070;48.102;-1.652;2023-04-05T12:36:12;101901.84;;;17.04;46.11
39949;BME280;29070;48.102;-1.652;2023-04-05T12:41:13;101891.63;;;17.21;46.59
39949;BME280;29070;48.102;-1.652;2023-04-05T12:46:17;101885.91;;;17.18;45.84
39949;BME280;29070;48.102;-1.652;2023-04-05T12:51:17;101887.28;;;17.27;45.64
39949;BME280;29070;48.102;-1.652;2023-04-05T12:56:18;101889.75;;;17.22;45.61
39949;BME280;29070;48.102;-1.652;2023-04-05T13:01:18;101889.63;;;17.03;45.41
39949;BME280;29070;48.102;-1.652;2023-04-05T13:06:18;101892.88;;;17.05;44.98
39949;BME280;29070;48.102;-1.652;2023-04-05T13:11:19;101878.44;;;17.01;45.22
39949;BME280;29070;48.102;-1.652;2023-04-05T13:16:19;101883.66;;;17.14;45.32
39949;BME280;29070;48.102;-1.652;2023-04-05T13:21:20;101878.16;;;17.16;44.95
39949;BME280;29070;48.102;-1.652;2023-04-05T13:26:20;101873.72;;;17.03;44.88
39949;BME280;29070;48.102;-1.652;2023-04-05T13:31:20;101871.94;;;17.42;45.05
39949;BME280;29070;48.102;-1.652;2023-04-05T13:36:21;101867.91;;;17.65;44.68
39949;BME280;29070;48.102;-1.652;2023-04-05T13:41:21;101850.91;;;17.72;44.54
39949;BME280;29070;48.102;-1.652;2023-04-05T13:46:22;101845.97;;;18.08;44.15
39949;BME280;29070;48.102;-1.652;2023-04-05T13:51:22;101842.63;;;17.94;44.04
39949;BME280;29070;48.102;-1.652;2023-04-05T13:56:22;101836.31;;;17.57;43.64
39949;BME280;29070;48.102;-1.652;2023-04-05T14:01:23;101825.59;;;17.70;43.89
39949;BME280;29070;48.102;-1.652;2023-04-05T14:06:23;101818.94;;;17.93;43.77
39949;BME280;29070;48.102;-1.652;2023-04-05T14:11:23;101817.19;;;18.05;43.76
39949;BME280;29070;48.102;-1.652;2023-04-05T14:16:24;101811.09;;;17.72;43.28
39949;BME280;29070;48.102;-1.652;2023-04-05T14:21:24;101801.53;;;17.65;43.44
39949;BME280;29070;48.102;-1.652;2023-04-05T14:26:26;101793.84;;;17.57;43.73
39949;BME280;29070;48.102;-1.652;2023-04-05T14:31:26;101794.16;;;17.67;43.74
39949;BME280;29070;48.102;-1.652;2023-04-05T14:36:27;101784.75;;;17.71;43.70
39949;BME280;29070;48.102;-1.652;2023-04-05T14:41:27;101772.06;;;17.73;43.33
39949;BME280;29070;48.102;-1.652;2023-04-05T14:46:28;101769.84;;;17.70;43.00
39949;BME280;29070;48.102;-1.652;2023-04-05T14:51:28;101760.09;;;17.64;42.93
39949;BME280;29070;48.102;-1.652;2023-04-05T14:56:28;101752.22;;;17.50;43.21
39949;BME280;29070;48.102;-1.652;2023-04-05T15:01:29;101744.84;;;17.52;43.23
39949;BME280;29070;48.102;-1.652;2023-04-05T15:06:29;101740.44;;;17.40;43.19
39949;BME280;29070;48.102;-1.652;2023-04-05T15:11:30;101732.88;;;17.43;43.52
39949;BME280;29070;48.102;-1.652;2023-04-05T15:16:34;101731.09;;;17.37;43.80
39949;BME280;29070;48.102;-1.652;2023-04-05T15:21:35;101718.66;;;17.56;43.69
39949;BME280;29070;48.102;-1.652;2023-04-05T15:26:35;101716.03;;;17.56;43.63
39949;BME280;29070;48.102;-1.652;2023-04-05T15:31:35;101699.88;;;17.58;43.57
39949;BME280;29070;48.102;-1.652;2023-04-05T15:36:36;101706.47;;;17.73;43.96
39949;BME280;29070;48.102;-1.652;2023-04-05T15:41:36;101693.94;;;17.81;43.41
39949;BME280;29070;48.102;-1.652;2023-04-05T15:46:37;101689.91;;;17.78;43.72
39949;BME280;29070;48.102;-1.652;2023-04-05T15:51:37;101695.66;;;17.75;43.63
39949;BME280;29070;48.102;-1.652;2023-04-05T15:56:37;101691.91;;;17.58;43.82
39949;BME280;29070;48.102;-1.652;2023-04-05T16:01:38;101682.00;;;17.46;43.96
39949;BME280;29070;48.102;-1.652;2023-04-05T16:06:38;101683.16;;;17.32;43.87
39949;BME280;29070;48.102;-1.652;2023-04-05T16:11:39;101667.44;;;17.56;43.93
39949;BME280;29070;48.102;-1.652;2023-04-05T16:16:39;101671.44;;;17.65;43.65
39949;BME280;29070;48.102;-1.652;2023-04-05T16:21:40;101671.44;;;17.40;43.55
39949;BME280;29070;48.102;-1.652;2023-04-05T16:26:41;101670.69;;;17.32;43.81
39949;BME280;29070;48.102;-1.652;2023-04-05T16:31:41;101662.34;;;17.29;44.30
39949;BME280;29070;48.102;-1.652;2023-04-05T16:36:46;101664.06;;;17.17;44.24
39949;BME280;29070;48.102;-1.652;2023-04-05T16:41:46;101663.66;;;17.20;44.26
39949;BME280;29070;48.102;-1.652;2023-04-05T16:46:47;101661.03;;;17.13;44.60
39949;BME280;29070;48.102;-1.652;2023-04-05T16:51:47;101659.03;;;17.08;44.23
39949;BME280;29070;48.102;-1.652;2023-04-05T16:56:47;101654.28;;;17.17;44.18
39949;BME280;29070;48.102;-1.652;2023-04-05T17:01:48;101653.66;;;17.15;44.05
39949;BME280;29070;48.102;-1.652;2023-04-05T17:06:48;101656.97;;;17.10;44.34
39949;BME280;29070;48.102;-1.652;2023-04-05T17:11:49;101653.34;;;17.05;44.27
39949;BME280;29070;48.102;-1.652;2023-04-05T17:16:49;101651.34;;;17.00;44.09
39949;BME280;29070;48.102;-1.652;2023-04-05T17:21:49;101650.91;;;17.03;44.36
39949;BME280;29070;48.102;-1.652;2023-04-05T17:26:50;101649.38;;;16.89;44.31
39949;BME280;29070;48.102;-1.652;2023-04-05T17:31:50;101647.34;;;16.77;44.88
39949;BME280;29070;48.102;-1.652;2023-04-05T17:36:51;101641.72;;;16.67;44.81
39949;BME280;29070;48.102;-1.652;2023-04-05T17:41:53;101632.47;;;16.45;45.17
39949;BME280;29070;48.102;-1.652;2023-04-05T17:46:55;101646.97;;;16.35;45.04
39949;BME280;29070;48.102;-1.652;2023-04-05T17:51:56;101655.59;;;16.24;45.54
39949;BME280;29070;48.102;-1.652;2023-04-05T17:56:56;101650.50;;;16.23;45.52
39949;BME280;29070;48.102;-1.652;2023-04-05T18:01:57;101652.56;;;16.14;45.80
39949;BME280;29070;48.102;-1.652;2023-04-05T18:06:57;101652.56;;;16.14;46.35
39949;BME280;29070;48.102;-1.652;2023-04-05T18:11:58;101649.94;;;16.07;46.64
39949;BME280;29070;48.102;-1.652;2023-04-05T18:16:59;101648.13;;;15.94;47.09
39949;BME280;29070;48.102;-1.652;2023-04-05T18:22:01;101660.38;;;15.82;47.41
39949;BME280;29070;48.102;-1.652;2023-04-05T18:27:01;101665.66;;;15.62;47.99
39949;BME280;29070;48.102;-1.652;2023-04-05T18:32:04;101662.00;;;15.50;48.21
39949;BME280;29070;48.102;-1.652;2023-04-05T18:37:06;101665.69;;;15.42;48.64
39949;BME280;29070;48.102;-1.652;2023-04-05T18:42:06;101670.16;;;15.35;49.41
39949;BME280;29070;48.102;-1.652;2023-04-05T18:47:07;101670.34;;;15.27;49.72
39949;BME280;29070;48.102;-1.652;2023-04-05T18:52:07;101675.22;;;15.16;50.14
39949;BME280;29070;48.102;-1.652;2023-04-05T18:57:09;101677.84;;;15.16;50.42
39949;BME280;29070;48.102;-1.652;2023-04-05T19:02:09;101681.50;;;15.02;50.95
39949;BME280;29070;48.102;-1.652;2023-04-05T19:07:10;101685.13;;;14.87;51.54
39949;BME280;29070;48.102;-1.652;2023-04-05T19:12:10;101685.88;;;14.68;51.82
39949;BME280;29070;48.102;-1.652;2023-04-05T19:17:10;101695.16;;;14.51;52.45
39949;BME280;29070;48.102;-1.652;2023-04-05T19:22:11;101698.34;;;14.33;52.66
39949;BME280;29070;48.102;-1.652;2023-04-05T19:27:11;101713.94;;;14.27;53.11
39949;BME280;29070;48.102;-1.652;2023-04-05T19:32:12;101719.31;;;14.13;53.80
39949;BME280;29070;48.102;-1.652;2023-04-05T19:37:13;101729.88;;;14.13;54.06
39949;BME280;29070;48.102;-1.652;2023-04-05T19:42:13;101736.50;;;14.02;54.43
39949;BME280;29070;48.102;-1.652;2023-04-05T19:47:14;101744.84;;;14.05;54.09
39949;BME280;29070;48.102;-1.652;2023-04-05T19:52:46;101743.84;;;13.78;53.12
39949;BME280;29070;48.102;-1.652;2023-04-05T19:57:47;101750.72;;;13.72;53.40
39949;BME280;29070;48.102;-1.652;2023-04-05T20:02:47;101757.50;;;13.60;53.34
39949;BME280;29070;48.102;-1.652;2023-04-05T20:07:47;101756.06;;;13.36;53.45
39949;BME280;29070;48.102;-1.652;2023-04-05T20:12:48;101758.34;;;13.24;53.62
39949;BME280;29070;48.102;-1.652;2023-04-05T20:17:48;101766.00;;;13.19;54.05
39949;BME280;29070;48.102;-1.652;2023-04-05T20:22:49;101764.31;;;12.96;54.22
39949;BME280;29070;48.102;-1.652;2023-04-05T20:27:50;101767.06;;;12.88;54.14
39949;BME280;29070;48.102;-1.652;2023-04-05T20:32:50;101767.59;;;12.84;54.35
39949;BME280;29070;48.102;-1.652;2023-04-05T20:37:51;101774.19;;;12.58;54.66
39949;BME280;29070;48.102;-1.652;2023-04-05T20:42:52;101766.81;;;12.53;55.05
39949;BME280;29070;48.102;-1.652;2023-04-05T20:47:52;101773.28;;;12.51;55.33
39949;BME280;29070;48.102;-1.652;2023-04-05T20:52:53;101772.47;;;12.50;55.32
39949;BME280;29070;48.102;-1.652;2023-04-05T20:57:53;101769.72;;;12.44;55.70
39949;BME280;29070;48.102;-1.652;2023-04-05T21:02:53;101763.38;;;12.38;56.06
39949;BME280;29070;48.102;-1.652;2023-04-05T21:07:54;101768.53;;;12.31;56.28
39949;BME280;29070;48.102;-1.652;2023-04-05T21:12:54;101783.31;;;12.17;56.65
39949;BME280;29070;48.102;-1.652;2023-04-05T21:17:54;101783.69;;;12.14;56.86
39949;BME280;29070;48.102;-1.652;2023-04-05T21:22:56;101778.25;;;11.93;57.26
39949;BME280;29070;48.102;-1.652;2023-04-05T21:27:58;101781.41;;;11.65;58.00
39949;BME280;29070;48.102;-1.652;2023-04-05T21:32:58;101791.34;;;11.55;58.10
39949;BME280;29070;48.102;-1.652;2023-04-05T21:37:59;101789.44;;;11.49;58.26
39949;BME280;29070;48.102;-1.652;2023-04-05T21:43:00;101776.78;;;11.44;58.09
39949;BME280;29070;48.102;-1.652;2023-04-05T21:48:00;101779.97;;;11.39;58.70
39949;BME280;29070;48.102;-1.652;2023-04-05T21:53:01;101773.63;;;11.25;59.22
39949;BME280;29070;48.102;-1.652;2023-04-05T21:58:01;101775.25;;;11.26;59.53
39949;BME280;29070;48.102;-1.652;2023-04-05T22:03:02;101763.59;;;11.29;59.72
39949;BME280;29070;48.102;-1.652;2023-04-05T22:08:02;101762.41;;;11.32;59.94
39949;BME280;29070;48.102;-1.652;2023-04-05T22:13:02;101775.03;;;11.36;60.18
39949;BME280;29070;48.102;-1.652;2023-04-05T22:18:03;101758.81;;;11.33;60.54
39949;BME280;29070;48.102;-1.652;2023-04-05T22:23:04;101762.31;;;11.25;60.89
39949;BME280;29070;48.102;-1.652;2023-04-05T22:28:05;101758.53;;;11.19;61.22
39949;BME280;29070;48.102;-1.652;2023-04-05T22:33:05;101756.13;;;11.10;61.57
39949;BME280;29070;48.102;-1.652;2023-04-05T22:38:07;101758.44;;;11.13;61.74
39949;BME280;29070;48.102;-1.652;2023-04-05T22:43:07;101763.03;;;11.11;62.03
39949;BME280;29070;48.102;-1.652;2023-04-05T22:48:08;101758.13;;;11.07;62.41
39949;BME280;29070;48.102;-1.652;2023-04-05T22:53:09;101747.09;;;11.12;62.57
39949;BME280;29070;48.102;-1.652;2023-04-05T22:58:09;101745.28;;;11.13;62.63
39949;BME280;29070;48.102;-1.652;2023-04-05T23:03:09;101734.13;;;11.11;62.84
39949;BME280;29070;48.102;-1.652;2023-04-05T23:08:10;101736.09;;;11.09;63.00
39949;BME280;29070;48.102;-1.652;2023-04-05T23:13:10;101723.97;;;11.07;63.40
39949;BME280;29070;48.102;-1.652;2023-04-05T23:18:10;101727.41;;;11.08;63.49
39949;BME280;29070;48.102;-1.652;2023-04-05T23:23:11;101727.75;;;11.05;63.78
39949;BME280;29070;48.102;-1.652;2023-04-05T23:28:11;101719.38;;;11.01;63.90
39949;BME280;29070;48.102;-1.652;2023-04-05T23:33:11;101718.91;;;10.98;64.14
39949;BME280;29070;48.102;-1.652;2023-04-05T23:38:12;101710.72;;;10.93;64.38
39949;BME280;29070;48.102;-1.652;2023-04-05T23:43:12;101716.19;;;10.91;64.69
39949;BME280;29070;48.102;-1.652;2023-04-05T23:48:13;101708.63;;;10.88;64.92
39949;BME280;29070;48.102;-1.652;2023-04-05T23:53:13;101703.72;;;10.85;65.05
39949;BME280;29070;48.102;-1.652;2023-04-05T23:58:14;101697.19;;;10.81;65.12
